American Spirit — WDC4277 — position and weather

sailwx.info

Track history (hours):
 
Tides and Currents Weather Stations Pressure Air Temp Water Temp Dewpoint Dewpoint Depression Visibility Wind Speed Wind Dir Waves Ship Positions

American Spirit

Owner: AMERICAN WORKBOATS INC, TERMINAL ISLAND, CA. More information available from US FCC via Universal Licensing System and Coast Guard Vessel Documentation Center.

Last reported at 2016-May-25 20:26 UTC. Time now 2016-May-25 20:48 UTC.
Position N 33°44' W 118°16'.

Length 3 m; draft 10 m.

Type: Tug. MMSI: 367022090.

Date/timePositionNaut miles runAvg speedWind from/ knotsBaromVisibWave heightAir tempDewpointWater temp
2016-May-25 20:26N 33°44' W 118°16'0 0.5
2016-May-25 19:23N 33°44' W 118°16'3 3.7
2016-May-25 18:33N 33°47' W 118°15'2 0.1
2016-May-25 02:20N 33°45' W 118°16'1 1.2
2016-May-25 01:33N 33°45' W 118°16'5 0.4
2016-May-24 13:29N 33°41' W 118°15'  
2016-May-19 05:29N 33°44' W 118°13'2 2.4
2016-May-19 04:32N 33°46' W 118°13'13 2.5
2016-May-18 23:30N 33°50' W 118°27'8 1.6
2016-May-18 18:24N 33°58' W 118°27'0 0.0
2016-May-18 17:26N 33°58' W 118°27'0 0.0
2016-May-18 15:26N 33°58' W 118°27'1 0.2
2016-May-18 10:30N 33°57' W 118°28'3 2.8
2016-May-18 09:33N 33°55' W 118°28'13 3.8
2016-May-18 06:13N 33°43' W 118°23'  
Track history (hours):
 
Tides and Currents Weather Stations Pressure Air Temp Water Temp Dewpoint Dewpoint Depression Visibility Wind Speed Wind Dir Waves Ship Positions

American Spirit

Owner: AMERICAN WORKBOATS INC, TERMINAL ISLAND, CA. More information available from US FCC via Universal Licensing System and Coast Guard Vessel Documentation Center.

Last reported at 2016-May-25 20:26 UTC. Time now 2016-May-25 20:48 UTC.
Position N 33°44' W 118°16'.

Length 3 m; draft 10 m.

Type: Tug. MMSI: 367022090.

Date/timePositionNaut miles runAvg speedWind from/ knotsBaromVisibWave heightAir tempDewpointWater temp
2016-May-25 20:26N 33°44' W 118°16'0 0.5
2016-May-25 19:23N 33°44' W 118°16'3 3.7
2016-May-25 18:33N 33°47' W 118°15'2 0.1
2016-May-25 02:20N 33°45' W 118°16'1 1.2
2016-May-25 01:33N 33°45' W 118°16'5 0.4
2016-May-24 13:29N 33°41' W 118°15'  
2016-May-19 05:29N 33°44' W 118°13'2 2.4
2016-May-19 04:32N 33°46' W 118°13'13 2.5
2016-May-18 23:30N 33°50' W 118°27'8 1.6
2016-May-18 18:24N 33°58' W 118°27'0 0.0
2016-May-18 17:26N 33°58' W 118°27'0 0.0
2016-May-18 15:26N 33°58' W 118°27'1 0.2
2016-May-18 10:30N 33°57' W 118°28'3 2.8
2016-May-18 09:33N 33°55' W 118°28'13 3.8
2016-May-18 06:13N 33°43' W 118°23'  

Dump ship's entire track history